createdAt,value
2018-07-15T00:02:07.988Z,59.82
2018-07-15T00:04:36.650Z,60.65
2018-07-15T00:07:05.521Z,60.47
2018-07-15T00:09:34.135Z,60.72
2018-07-15T00:12:02.823Z,60.24
2018-07-15T00:14:31.517Z,59.72
2018-07-15T00:17:00.161Z,59.69
2018-07-15T00:19:28.776Z,60.14
2018-07-15T00:21:57.616Z,59.99
2018-07-15T00:24:26.961Z,59.40
2018-07-15T00:26:55.553Z,59.23
2018-07-15T00:29:24.602Z,59.71
2018-07-15T00:31:53.203Z,59.71
2018-07-15T00:34:21.914Z,59.76
2018-07-15T00:36:50.618Z,59.27
2018-07-15T00:39:19.290Z,60.28
2018-07-15T00:41:47.902Z,60.49
2018-07-15T00:44:16.562Z,60.97
2018-07-15T00:46:45.879Z,60.79
2018-07-15T00:49:15.081Z,61.08
2018-07-15T00:51:43.694Z,61.61
2018-07-15T00:54:12.685Z,61.57
2018-07-15T00:56:41.317Z,62.11
2018-07-15T00:59:09.918Z,61.67
2018-07-15T01:01:38.621Z,62.60
2018-07-15T01:04:07.737Z,62.43
2018-07-15T01:06:36.468Z,62.67
2018-07-15T01:09:07.310Z,63.20
2018-07-15T01:11:35.946Z,63.00
2018-07-15T01:14:04.606Z,62.40
2018-07-15T01:16:33.197Z,62.33
2018-07-15T01:19:01.803Z,62.22
2018-07-15T01:21:30.449Z,62.64
2018-07-15T01:23:59.112Z,62.91
2018-07-15T01:26:27.733Z,62.73
2018-07-15T01:28:56.376Z,62.52
2018-07-15T01:31:25.058Z,62.64
2018-07-15T01:33:54.072Z,63.38
2018-07-15T01:36:22.793Z,62.42
2018-07-15T01:38:51.406Z,63.21
2018-07-15T01:41:20.147Z,63.93
2018-07-15T01:43:48.744Z,63.49
2018-07-15T01:46:17.883Z,63.49
2018-07-15T01:48:46.499Z,64.56
2018-07-15T01:51:15.094Z,64.86
2018-07-15T01:53:43.743Z,63.47
2018-07-15T01:56:12.365Z,62.76
2018-07-15T01:58:40.995Z,63.35
2018-07-15T02:01:09.603Z,63.32
2018-07-15T02:03:38.184Z,62.43
2018-07-15T02:06:07.116Z,62.56
2018-07-15T02:08:35.694Z,63.22
2018-07-15T02:11:04.321Z,64.06
2018-07-15T02:13:32.934Z,63.77
2018-07-15T02:16:01.540Z,63.84
2018-07-15T02:18:30.123Z,64.35
2018-07-15T02:20:58.714Z,64.89
2018-07-15T02:23:27.322Z,64.86
2018-07-15T02:25:55.983Z,65.07
2018-07-15T02:28:24.589Z,65.82
2018-07-15T02:30:53.180Z,65.26
2018-07-15T02:33:21.803Z,64.47
2018-07-15T02:35:50.457Z,65.15
2018-07-15T02:38:19.136Z,64.30
2018-07-15T02:40:47.730Z,63.47
2018-07-15T02:43:16.381Z,63.81
2018-07-15T02:45:45.002Z,64.39
2018-07-15T02:48:13.687Z,64.06
2018-07-15T02:50:42.288Z,63.77
2018-07-15T02:53:10.950Z,64.57
2018-07-15T02:55:39.568Z,64.45
2018-07-15T02:58:08.234Z,63.76
2018-07-15T03:00:36.865Z,64.31
2018-07-15T03:03:05.494Z,64.08
2018-07-15T03:05:34.069Z,64.74
2018-07-15T03:08:02.653Z,64.21
2018-07-15T03:10:31.260Z,64.20
2018-07-15T03:12:59.854Z,64.05
2018-07-15T03:15:29.684Z,63.77
2018-07-15T03:17:58.270Z,64.31
2018-07-15T03:20:26.945Z,64.76
2018-07-15T03:22:55.577Z,65.21
2018-07-15T03:25:24.208Z,65.40
2018-07-15T03:27:52.801Z,65.10
2018-07-15T03:30:21.430Z,65.33
2018-07-15T03:32:50.168Z,65.30
2018-07-15T03:35:18.797Z,65.30
2018-07-15T03:37:47.560Z,64.70
2018-07-15T03:40:16.332Z,65.07
2018-07-15T03:42:45.094Z,64.24
2018-07-15T03:45:13.897Z,64.62
2018-07-15T03:47:42.479Z,65.07
2018-07-15T03:50:11.882Z,65.00
2018-07-15T03:52:40.465Z,65.32
2018-07-15T03:55:09.077Z,65.87
2018-07-15T03:57:37.695Z,65.82
2018-07-15T04:00:06.420Z,65.77
2018-07-15T04:02:35.206Z,65.86
2018-07-15T04:05:03.891Z,64.65
2018-07-15T04:07:32.517Z,64.25
2018-07-15T04:10:01.136Z,64.37
2018-07-15T04:12:29.719Z,64.58
2018-07-15T04:14:58.317Z,63.22
2018-07-15T04:17:26.940Z,62.79
2018-07-15T04:19:55.710Z,62.45
2018-07-15T04:22:24.309Z,62.62
2018-07-15T04:24:52.993Z,62.29
2018-07-15T04:27:21.624Z,61.73
2018-07-15T04:29:50.309Z,61.64
2018-07-15T04:32:18.918Z,61.39
2018-07-15T04:34:47.561Z,61.09
2018-07-15T04:37:16.162Z,61.06
2018-07-15T04:39:44.788Z,60.85
2018-07-15T04:42:13.522Z,61.24
2018-07-15T04:44:42.146Z,60.82
2018-07-15T04:47:10.722Z,60.36
2018-07-15T04:49:39.476Z,60.82
2018-07-15T04:52:08.682Z,60.30
2018-07-15T04:54:37.993Z,59.90
2018-07-15T04:57:06.627Z,60.04
2018-07-15T04:59:35.209Z,59.27
2018-07-15T05:02:03.928Z,60.33
2018-07-15T05:04:32.515Z,59.31
2018-07-15T05:07:01.112Z,61.08
2018-07-15T05:09:30.187Z,61.17
2018-07-15T05:11:58.778Z,61.84
2018-07-15T05:14:27.384Z,62.23
2018-07-15T05:16:55.961Z,62.05
2018-07-15T05:19:24.581Z,61.52
2018-07-15T05:21:53.339Z,60.19
2018-07-15T05:24:22.042Z,58.31
2018-07-15T05:26:50.773Z,57.95
2018-07-15T05:29:19.414Z,58.27
2018-07-15T05:31:48.129Z,58.85
2018-07-15T05:34:16.774Z,58.99
2018-07-15T05:36:45.487Z,59.23
2018-07-15T05:39:14.149Z,59.32
2018-07-15T05:41:43.063Z,58.77
2018-07-15T05:44:11.736Z,58.40
2018-07-15T05:46:40.361Z,57.49
2018-07-15T05:49:09.118Z,57.26
2018-07-15T05:51:37.712Z,56.62
2018-07-15T05:54:06.341Z,57.06
2018-07-15T05:56:35.070Z,56.44
2018-07-15T05:59:03.663Z,56.66
2018-07-15T06:01:32.288Z,56.07
2018-07-15T06:04:00.886Z,55.18
2018-07-15T06:06:29.610Z,55.12
2018-07-15T06:08:58.188Z,54.93
2018-07-15T06:11:26.931Z,54.02
2018-07-15T06:13:55.554Z,54.49
2018-07-15T06:16:24.183Z,54.94
2018-07-15T06:18:52.854Z,51.71
2018-07-15T06:21:21.431Z,52.95
2018-07-15T06:23:50.238Z,52.47
2018-07-15T06:26:18.930Z,51.25
2018-07-15T06:28:47.776Z,51.97
2018-07-15T06:31:16.468Z,51.79
2018-07-15T06:33:45.091Z,52.09
2018-07-15T06:36:13.705Z,52.31
2018-07-15T06:38:42.378Z,51.49
2018-07-15T06:41:10.996Z,51.78
2018-07-15T06:43:39.690Z,50.68
2018-07-15T06:46:08.365Z,49.77
2018-07-15T06:48:37.099Z,49.97
2018-07-15T06:51:05.768Z,48.87
2018-07-15T06:53:34.451Z,48.68
2018-07-15T06:56:03.307Z,48.33
2018-07-15T06:58:31.861Z,48.19
2018-07-15T07:01:00.489Z,48.32
2018-07-15T07:03:29.199Z,48.79
2018-07-15T07:05:57.809Z,48.71
2018-07-15T07:08:26.461Z,47.44
2018-07-15T07:10:55.238Z,48.40
2018-07-15T07:13:23.865Z,48.71
2018-07-15T07:15:52.575Z,47.96
2018-07-15T07:18:21.295Z,48.18
2018-07-15T07:20:49.921Z,48.85
2018-07-15T07:23:18.563Z,48.21
2018-07-15T07:25:47.247Z,47.45
2018-07-15T07:28:15.909Z,47.44
2018-07-15T07:30:44.591Z,47.29
2018-07-15T07:33:13.219Z,46.76
2018-07-15T07:35:41.851Z,45.38
2018-07-15T07:38:11.233Z,45.61
2018-07-15T07:40:40.044Z,45.29
2018-07-15T07:43:08.987Z,45.55
2018-07-15T07:45:37.657Z,46.12
2018-07-15T07:48:06.392Z,46.59
2018-07-15T07:50:35.765Z,45.99
2018-07-15T07:53:04.361Z,45.91
2018-07-15T07:55:32.946Z,45.54
2018-07-15T07:58:01.609Z,45.35
2018-07-15T08:00:30.354Z,45.90
2018-07-15T08:02:59.035Z,45.88
2018-07-15T08:05:27.716Z,45.76
2018-07-15T08:07:56.361Z,45.19
2018-07-15T08:10:25.019Z,45.49
2018-07-15T08:12:53.701Z,46.07
2018-07-15T08:15:22.353Z,45.68
2018-07-15T08:17:50.960Z,45.34
2018-07-15T08:20:19.606Z,46.20
2018-07-15T08:22:48.218Z,45.70
2018-07-15T08:25:16.833Z,45.68
2018-07-15T08:27:45.473Z,45.72
2018-07-15T08:30:25.053Z,44.95
2018-07-15T08:32:53.753Z,45.97
2018-07-15T08:35:22.348Z,45.35
2018-07-15T08:37:51.030Z,45.29
2018-07-15T08:40:19.914Z,45.06
2018-07-15T08:42:48.573Z,44.10
2018-07-15T08:45:17.403Z,45.08
2018-07-15T08:47:46.049Z,43.96
2018-07-15T08:50:14.680Z,43.97
2018-07-15T08:52:43.849Z,43.83
2018-07-15T08:55:12.666Z,43.28
2018-07-15T08:57:41.376Z,42.81
2018-07-15T09:00:10.097Z,42.52
2018-07-15T09:02:38.724Z,42.79
2018-07-15T09:05:07.471Z,42.60
2018-07-15T09:07:36.072Z,41.82
2018-07-15T09:10:04.825Z,41.17
2018-07-15T09:12:33.483Z,40.67
2018-07-15T09:15:02.055Z,40.17
2018-07-15T09:17:30.758Z,39.55
2018-07-15T09:19:59.403Z,39.58
2018-07-15T09:22:28.046Z,40.16
2018-07-15T09:24:56.685Z,40.11
2018-07-15T09:27:25.297Z,40.12
2018-07-15T09:29:53.918Z,38.58
2018-07-15T09:32:22.578Z,38.24
2018-07-15T09:34:51.206Z,38.64
2018-07-15T09:37:19.822Z,38.20
2018-07-15T09:39:48.464Z,38.48
2018-07-15T09:42:17.110Z,38.93
2018-07-15T09:44:45.819Z,38.77
2018-07-15T09:47:14.438Z,38.99
2018-07-15T09:49:43.041Z,39.03
2018-07-15T09:52:11.625Z,37.38
2018-07-15T09:54:41.115Z,38.41
2018-07-15T09:57:09.762Z,40.06
2018-07-15T09:59:38.328Z,39.65
2018-07-15T10:02:07.056Z,40.08
2018-07-15T10:04:35.782Z,40.94
2018-07-15T10:07:04.336Z,41.85
2018-07-15T10:09:32.977Z,40.76
2018-07-15T10:12:01.650Z,41.22
2018-07-15T10:14:30.360Z,40.70
2018-07-15T10:16:58.953Z,39.62
2018-07-15T10:19:27.718Z,38.66
2018-07-15T10:21:56.366Z,39.54
2018-07-15T10:24:24.989Z,38.86
2018-07-15T10:26:53.650Z,37.42
2018-07-15T10:29:23.004Z,37.09
2018-07-15T10:31:51.663Z,37.75
2018-07-15T10:34:20.310Z,36.42
2018-07-15T10:36:48.955Z,35.35
2018-07-15T10:39:17.614Z,35.26
2018-07-15T10:41:46.236Z,34.86
2018-07-15T10:44:14.997Z,34.06
2018-07-15T10:46:43.682Z,33.16
2018-07-15T10:49:12.603Z,33.84
2018-07-15T10:51:41.237Z,33.41
2018-07-15T10:54:09.953Z,33.33
2018-07-15T10:56:38.617Z,34.32
2018-07-15T10:59:07.280Z,34.21
2018-07-15T11:01:36.590Z,34.28
2018-07-15T11:04:05.282Z,33.50
2018-07-15T11:06:34.369Z,33.58
2018-07-15T11:09:03.170Z,33.37
2018-07-15T11:11:31.851Z,34.33
2018-07-15T11:14:00.527Z,34.35
2018-07-15T11:16:29.250Z,33.76
2018-07-15T11:18:57.963Z,33.35
2018-07-15T11:21:26.616Z,33.45
2018-07-15T11:23:55.249Z,33.43
2018-07-15T11:26:23.933Z,33.43
2018-07-15T11:28:52.730Z,33.16
2018-07-15T11:31:21.359Z,32.33
2018-07-15T11:33:50.032Z,31.72
2018-07-15T11:36:18.651Z,32.13
2018-07-15T11:38:47.310Z,32.76
2018-07-15T11:41:16.082Z,32.29
2018-07-15T11:43:44.807Z,30.66
2018-07-15T11:46:13.582Z,31.18
2018-07-15T11:48:42.297Z,29.97
2018-07-15T11:51:10.967Z,30.10
2018-07-15T11:53:39.699Z,29.65
2018-07-15T11:56:08.389Z,29.60
2018-07-15T11:58:37.106Z,28.87
2018-07-15T12:01:06.514Z,28.78
2018-07-15T12:03:35.191Z,28.40
2018-07-15T12:06:03.899Z,29.04
2018-07-15T12:08:32.681Z,29.72
2018-07-15T12:11:01.589Z,29.54
2018-07-15T12:13:30.192Z,29.18
2018-07-15T12:15:58.859Z,28.92
2018-07-15T12:18:27.610Z,28.16
2018-07-15T12:20:56.254Z,28.22
2018-07-15T12:23:24.885Z,28.32
2018-07-15T12:25:53.553Z,27.69
2018-07-15T12:28:22.318Z,27.40
2018-07-15T12:30:50.967Z,27.07
2018-07-15T12:33:19.658Z,27.30
2018-07-15T12:35:48.382Z,26.86
2018-07-15T12:38:17.083Z,26.46
2018-07-15T12:40:45.719Z,26.94
2018-07-15T12:43:14.379Z,25.51
2018-07-15T12:45:43.115Z,25.75
2018-07-15T12:48:11.845Z,25.79
2018-07-15T12:50:40.486Z,25.57
2018-07-15T12:53:09.230Z,26.75
2018-07-15T12:55:37.948Z,26.13
2018-07-15T12:58:06.707Z,24.95
2018-07-15T13:00:35.502Z,24.83
2018-07-15T13:03:04.297Z,25.91
2018-07-15T13:05:32.972Z,27.02
2018-07-15T13:08:01.613Z,27.16
2018-07-15T13:10:30.531Z,26.14
2018-07-15T13:12:59.291Z,26.23
2018-07-15T13:15:27.996Z,25.65
2018-07-15T13:17:56.650Z,24.51
2018-07-15T13:20:25.299Z,23.40
2018-07-15T13:22:53.987Z,23.42
2018-07-15T13:25:23.239Z,22.54
2018-07-15T13:27:51.912Z,22.25
2018-07-15T13:30:20.721Z,23.42
2018-07-15T13:32:49.390Z,23.34
2018-07-15T13:35:18.198Z,22.64
2018-07-15T13:37:46.823Z,22.88
2018-07-15T13:40:15.619Z,24.31
2018-07-15T13:42:44.497Z,23.77
2018-07-15T13:45:13.123Z,24.46
2018-07-15T13:47:41.764Z,24.77
2018-07-15T13:50:10.418Z,24.16
2018-07-15T13:52:39.073Z,25.35
2018-07-15T13:55:07.738Z,24.66
2018-07-15T13:57:36.416Z,23.85
2018-07-15T14:00:06.574Z,23.52
2018-07-15T14:02:35.149Z,23.11
2018-07-15T14:05:03.788Z,24.04
2018-07-15T14:07:32.398Z,24.20
2018-07-15T14:10:01.012Z,23.98
2018-07-15T14:12:29.797Z,24.42
2018-07-15T14:14:58.487Z,24.03
2018-07-15T14:17:27.329Z,25.25
2018-07-15T14:19:55.964Z,25.69
2018-07-15T14:22:24.631Z,26.37
2018-07-15T14:24:53.258Z,26.95
2018-07-15T14:27:22.053Z,26.80
2018-07-15T14:29:50.714Z,24.91
2018-07-15T14:32:19.497Z,22.58
2018-07-15T14:34:48.287Z,21.02
2018-07-15T14:37:16.943Z,19.40
2018-07-15T14:39:45.537Z,20.05
2018-07-15T14:42:14.263Z,18.83
2018-07-15T14:44:42.912Z,17.82
2018-07-15T14:47:11.770Z,17.36
2018-07-15T14:49:41.423Z,17.55
2018-07-15T14:52:10.079Z,16.41
2018-07-15T14:54:38.699Z,16.27
2018-07-15T14:57:07.409Z,15.04
2018-07-15T14:59:36.039Z,15.64
2018-07-15T15:02:05.897Z,16.02
2018-07-15T15:04:34.521Z,15.01
2018-07-15T15:07:03.267Z,15.30
2018-07-15T15:09:31.923Z,14.83
2018-07-15T15:12:00.560Z,14.82
2018-07-15T15:14:29.324Z,16.90
2018-07-15T15:16:58.026Z,17.96
2018-07-15T15:19:26.682Z,19.97
2018-07-15T15:21:55.333Z,19.58
2018-07-15T15:24:24.060Z,17.69
2018-07-15T15:26:52.721Z,16.93
2018-07-15T15:29:21.377Z,16.47
2018-07-15T15:31:50.129Z,14.53
2018-07-15T15:34:18.946Z,14.77
2018-07-15T15:36:47.656Z,15.58
2018-07-15T15:39:16.998Z,16.16
2018-07-15T15:41:45.747Z,16.17
2018-07-15T15:44:14.486Z,17.53
2018-07-15T15:46:43.764Z,19.34
2018-07-15T15:49:12.423Z,19.86
2018-07-15T15:51:41.708Z,18.66
2018-07-15T15:54:10.469Z,17.71
2018-07-15T15:56:39.165Z,18.97
2018-07-15T15:59:07.898Z,19.61
2018-07-15T16:01:36.560Z,20.21
2018-07-15T16:04:05.253Z,18.86
2018-07-15T16:06:33.978Z,17.03
2018-07-15T16:09:02.770Z,17.07
2018-07-15T16:11:31.454Z,17.47
2018-07-15T16:14:00.099Z,18.61
2018-07-15T16:16:28.769Z,18.62
2018-07-15T16:18:57.470Z,17.20
2018-07-15T16:21:26.202Z,17.15
2018-07-15T16:23:54.873Z,17.59
2018-07-15T16:26:23.608Z,19.28
2018-07-15T16:28:52.309Z,19.94
2018-07-15T16:31:21.001Z,20.42
2018-07-15T16:33:49.775Z,19.34
2018-07-15T16:36:18.451Z,18.53
2018-07-15T16:38:47.420Z,17.65
2018-07-15T16:41:16.108Z,17.12
2018-07-15T16:43:44.794Z,17.61
2018-07-15T16:46:13.529Z,17.62
2018-07-15T16:48:42.174Z,18.06
2018-07-15T16:51:10.860Z,18.13
2018-07-15T16:53:39.510Z,17.86
2018-07-15T16:56:08.247Z,17.31
2018-07-15T16:58:36.960Z,17.39
2018-07-15T17:01:05.607Z,17.94
2018-07-15T17:03:34.290Z,18.93
2018-07-15T17:06:02.970Z,18.48
2018-07-15T17:08:31.673Z,18.75
2018-07-15T17:11:00.313Z,19.04
2018-07-15T17:13:28.941Z,19.24
2018-07-15T17:15:57.631Z,18.00
2018-07-15T17:18:26.936Z,16.91
2018-07-15T17:20:56.814Z,16.64
2018-07-15T17:23:25.498Z,16.71
2018-07-15T17:25:54.437Z,17.26
2018-07-15T17:28:23.208Z,17.72
2018-07-15T17:30:51.882Z,21.79
2018-07-15T17:33:21.668Z,23.08
2018-07-15T17:35:50.345Z,24.25
2018-07-15T17:38:19.107Z,24.18
2018-07-15T17:40:47.879Z,24.66
2018-07-15T17:43:16.824Z,25.21
2018-07-15T17:45:45.783Z,24.64
2018-07-15T17:48:14.490Z,24.29
2018-07-15T17:50:43.139Z,23.98
2018-07-15T17:53:11.901Z,24.13
2018-07-15T17:55:41.203Z,25.75
2018-07-15T17:58:10.094Z,26.83
2018-07-15T18:00:38.750Z,28.35
2018-07-15T18:03:07.508Z,29.72
2018-07-15T18:05:36.302Z,30.49
2018-07-15T18:08:05.213Z,32.05
2018-07-15T18:10:34.342Z,32.76
2018-07-15T18:13:03.108Z,32.42
2018-07-15T18:15:32.494Z,33.32
2018-07-15T18:18:01.153Z,33.69
2018-07-15T18:20:29.896Z,34.41
2018-07-15T18:22:58.603Z,34.63
2018-07-15T18:25:27.227Z,35.37
2018-07-15T18:27:56.243Z,36.08
2018-07-15T18:30:25.181Z,36.05
2018-07-15T18:32:54.282Z,36.76
2018-07-15T18:35:23.021Z,37.76
2018-07-15T18:37:51.621Z,38.00
2018-07-15T18:40:21.388Z,38.20
2018-07-15T18:42:50.129Z,38.90
2018-07-15T18:45:19.271Z,39.35
2018-07-15T18:47:53.620Z,39.86
2018-07-15T18:50:23.597Z,40.27
2018-07-15T18:52:52.281Z,40.64
2018-07-15T18:55:21.009Z,40.04
2018-07-15T18:57:49.721Z,40.74
2018-07-15T19:00:18.537Z,41.09
2018-07-15T19:02:47.265Z,40.87
2018-07-15T19:05:15.950Z,41.29
2018-07-15T19:07:44.586Z,41.46
2018-07-15T19:10:14.957Z,42.09
2018-07-15T19:12:43.670Z,41.83
2018-07-15T19:15:12.450Z,42.20
2018-07-15T19:17:41.283Z,41.96
2018-07-15T19:20:09.945Z,42.49
2018-07-15T19:22:38.657Z,41.95
2018-07-15T19:25:07.451Z,42.77
2018-07-15T19:27:36.079Z,42.36
2018-07-15T19:30:05.164Z,42.99
2018-07-15T19:32:33.965Z,43.25
2018-07-15T19:35:02.644Z,43.10
2018-07-15T19:37:31.970Z,43.33
2018-07-15T19:40:00.586Z,43.79
2018-07-15T19:42:29.286Z,43.47
2018-07-15T19:44:57.880Z,43.53
2018-07-15T19:47:26.732Z,43.58
2018-07-15T19:49:55.341Z,43.72
2018-07-15T19:52:24.965Z,43.91
2018-07-15T19:54:54.294Z,43.80
2018-07-15T19:57:23.015Z,44.07
2018-07-15T19:59:55.607Z,43.89
2018-07-15T20:02:24.433Z,44.03
2018-07-15T20:04:54.237Z,43.91
2018-07-15T20:07:23.453Z,44.25
2018-07-15T20:09:52.204Z,44.16
2018-07-15T20:12:20.858Z,44.24
2018-07-15T20:14:49.889Z,43.89
2018-07-15T20:17:18.505Z,43.46
2018-07-15T20:19:47.210Z,44.11
2018-07-15T20:22:15.793Z,43.98
2018-07-15T20:24:44.540Z,44.74
2018-07-15T20:27:13.278Z,44.29
2018-07-15T20:29:42.128Z,44.03
2018-07-15T20:32:11.436Z,44.81
2018-07-15T20:34:40.799Z,44.82
2018-07-15T20:37:09.505Z,44.70
2018-07-15T20:39:38.113Z,44.59
2018-07-15T20:42:06.983Z,45.01
2018-07-15T20:44:35.592Z,45.82
2018-07-15T20:47:04.316Z,45.84
2018-07-15T20:49:33.110Z,45.64
2018-07-15T20:52:01.984Z,45.79
2018-07-15T20:54:30.677Z,45.71
2018-07-15T20:56:59.352Z,45.61
2018-07-15T20:59:28.174Z,46.70
2018-07-15T21:01:56.910Z,46.84
2018-07-15T21:04:25.881Z,47.22
2018-07-15T21:06:54.488Z,47.50
2018-07-15T21:09:23.091Z,47.10
2018-07-15T21:11:52.020Z,46.82
2018-07-15T21:14:20.706Z,46.86
2018-07-15T21:16:49.624Z,46.71
2018-07-15T21:19:18.249Z,46.65
2018-07-15T21:21:46.950Z,47.26
2018-07-15T21:24:16.319Z,47.11
2018-07-15T21:26:44.909Z,47.16
2018-07-15T21:29:13.547Z,47.26
2018-07-15T21:31:42.234Z,48.03
2018-07-15T21:34:10.878Z,48.32
2018-07-15T21:36:39.496Z,49.03
2018-07-15T21:39:08.745Z,50.25
2018-07-15T21:41:37.477Z,50.85
2018-07-15T21:44:06.205Z,50.60
2018-07-15T21:46:34.754Z,51.67
2018-07-15T21:49:03.536Z,51.95
2018-07-15T21:51:32.370Z,52.17
2018-07-15T21:54:00.979Z,52.35
2018-07-15T21:56:29.676Z,52.39
2018-07-15T21:58:58.310Z,52.81
2018-07-15T22:01:38.316Z,53.34
2018-07-15T22:04:07.640Z,54.37
2018-07-15T22:06:47.190Z,54.16
2018-07-15T22:09:27.425Z,55.05
2018-07-15T22:11:56.119Z,55.38
2018-07-15T22:14:24.721Z,55.79
2018-07-15T22:16:53.417Z,56.04
2018-07-15T22:19:22.040Z,56.63
2018-07-15T22:21:50.758Z,56.49
2018-07-15T22:24:19.385Z,57.04
2018-07-15T22:26:48.010Z,57.24
2018-07-15T22:29:16.638Z,57.58
2018-07-15T22:31:45.239Z,58.50
2018-07-15T22:34:13.863Z,59.17
2018-07-15T22:36:42.467Z,59.95
2018-07-15T22:39:11.137Z,60.04
2018-07-15T22:41:39.817Z,59.58
2018-07-15T22:44:08.499Z,59.73
2018-07-15T22:46:37.106Z,60.63
2018-07-15T22:49:05.697Z,60.69
2018-07-15T22:51:34.310Z,60.41
2018-07-15T22:54:03.288Z,60.17
2018-07-15T22:56:32.646Z,60.33
2018-07-15T22:59:01.539Z,60.89
2018-07-15T23:01:30.362Z,61.04
2018-07-15T23:03:59.098Z,60.68
2018-07-15T23:06:27.728Z,60.59
2018-07-15T23:08:56.328Z,60.95
2018-07-15T23:11:25.016Z,61.39
2018-07-15T23:13:53.668Z,61.35
2018-07-15T23:16:22.298Z,62.27
2018-07-15T23:18:50.973Z,62.01
2018-07-15T23:21:19.647Z,62.57
2018-07-15T23:23:48.286Z,62.31
2018-07-15T23:26:17.549Z,62.22
2018-07-15T23:28:46.896Z,62.25
2018-07-15T23:31:15.534Z,62.31
2018-07-15T23:33:44.809Z,60.52
2018-07-15T23:36:19.779Z,60.88
2018-07-15T23:38:48.437Z,60.28
2018-07-15T23:41:17.022Z,57.51
2018-07-15T23:43:45.663Z,57.15
2018-07-15T23:46:14.644Z,56.41
2018-07-15T23:48:43.241Z,54.77
2018-07-15T23:51:11.836Z,54.64
2018-07-15T23:53:40.441Z,54.76
2018-07-15T23:56:09.098Z,55.38
2018-07-15T23:58:37.790Z,55.31
